Time;durP1;ratioP1;P1;durP2;ratioP2;P2;SDS_P1;SDS_P2;PMS_P1;PMS_P2;Temp;Humidity;BMP_temperature;BMP_pressure;BME280_temperature;BME280_humidity;BME280_pressure;Samples;Min_cycle;Max_cycle;Signal;HPM_P1;HPM_P2
2023/09/13 00:01:49;;;;;;;1.10;1.10;;;19.50;99.90;;;;;;4981146;28;20188;-81
2023/09/13 00:04:15;;;;;;;0.80;0.80;;;19.50;99.90;;;;;;4982887;28;20053;-81
2023/09/13 00:06:41;;;;;;;0.80;0.80;;;19.20;99.90;;;;;;5000404;28;20046;-80
2023/09/13 00:09:08;;;;;;;0.98;0.98;;;19.60;99.90;;;;;;5005860;28;20050;-80
2023/09/13 00:11:35;;;;;;;1.00;1.00;;;19.60;99.90;;;;;;4984843;28;20635;-80
2023/09/13 00:14:01;;;;;;;0.80;0.80;;;19.30;99.90;;;;;;4996787;28;20042;-80
2023/09/13 00:16:27;;;;;;;0.80;0.80;;;19.60;99.90;;;;;;4981344;28;20503;-81
2023/09/13 00:18:53;;;;;;;1.00;1.00;;;19.50;99.90;;;;;;5003140;28;20133;-81
2023/09/13 00:21:20;;;;;;;0.90;0.90;;;19.40;99.90;;;;;;4998697;28;20073;-81
2023/09/13 00:23:46;;;;;;;0.90;0.90;;;19.60;99.90;;;;;;5000675;28;20403;-81
2023/09/13 00:26:14;;;;;;;0.80;0.80;;;19.30;99.90;;;;;;4986151;28;20065;-81
2023/09/13 00:28:39;;;;;;;1.00;1.00;;;19.20;99.90;;;;;;4977676;28;20129;-81
2023/09/13 00:31:09;;;;;;;0.80;0.80;;;19.80;99.90;;;;;;4965263;28;20155;-81
2023/09/13 00:33:34;;;;;;;0.90;0.90;;;19.40;99.90;;;;;;5002020;28;20041;-81
2023/09/13 00:36:00;;;;;;;0.98;0.98;;;19.30;99.90;;;;;;4989369;28;20502;-81
2023/09/13 00:38:26;;;;;;;0.77;0.77;;;19.60;99.90;;;;;;4984486;28;20054;-80
2023/09/13 00:40:52;;;;;;;0.77;0.77;;;19.60;99.90;;;;;;4998910;28;20049;-81
2023/09/13 00:43:18;;;;;;;0.80;0.80;;;19.30;99.90;;;;;;5000191;28;20053;-82
2023/09/13 00:45:45;;;;;;;0.80;0.80;;;19.40;99.90;;;;;;4998077;28;20127;-81
2023/09/13 00:48:11;;;;;;;0.90;0.90;;;19.40;99.90;;;;;;4992383;28;20450;-81
2023/09/13 00:50:37;;;;;;;0.80;0.80;;;19.60;99.90;;;;;;5003848;28;20077;-81
2023/09/13 00:53:04;;;;;;;0.80;0.80;;;19.30;99.90;;;;;;4984273;28;20511;-81
2023/09/13 00:55:31;;;;;;;0.90;0.90;;;19.30;99.90;;;;;;4983314;28;20057;-81
2023/09/13 00:57:57;;;;;;;0.90;0.90;;;19.20;99.90;;;;;;4981041;28;20112;-81
2023/09/13 01:00:26;;;;;;;0.90;0.90;;;19.70;99.90;;;;;;4984290;28;20049;-81
2023/09/13 01:02:55;;;;;;;0.90;0.90;;;19.80;99.90;;;;;;4968192;28;20084;-81
2023/09/13 01:05:22;;;;;;;1.00;1.00;;;19.40;99.90;;;;;;5000340;28;20147;-82
2023/09/13 01:07:48;;;;;;;0.90;0.90;;;19.70;99.90;;;;;;4980167;28;20053;-81
2023/09/13 01:10:14;;;;;;;1.08;1.08;;;19.30;99.90;;;;;;5003047;28;20049;-82
2023/09/13 01:12:40;;;;;;;1.00;1.00;;;19.50;99.90;;;;;;4986926;28;20108;-82
2023/09/13 01:15:07;;;;;;;1.00;1.00;;;19.20;99.90;;;;;;4975855;28;20530;-81
2023/09/13 01:17:54;;;;;;;1.00;1.00;;;19.20;99.90;;;;;;4970178;28;20277;-82
2023/09/13 01:20:56;;;;;;;1.00;1.00;;;19.40;99.90;;;;;;5004036;28;20068;-82
2023/09/13 01:23:52;;;;;;;0.90;0.90;;;19.60;99.90;;;;;;5004079;28;20097;-81
2023/09/13 01:26:45;;;;;;;1.17;1.17;;;19.40;99.90;;;;;;4997086;28;20037;-82
2023/09/13 01:29:14;;;;;;;1.20;1.20;;;19.60;99.90;;;;;;5001852;28;20038;-82
2023/09/13 01:31:41;;;;;;;1.17;1.17;;;19.40;99.90;;;;;;4976986;28;20534;-82
2023/09/13 01:34:07;;;;;;;1.05;1.05;;;19.40;99.90;;;;;;4977841;28;20050;-82
2023/09/13 01:36:33;;;;;;;1.10;1.10;;;19.30;99.90;;;;;;4978866;28;20046;-81
2023/09/13 01:38:58;;;;;;;1.20;1.20;;;19.30;99.90;;;;;;5001569;28;20050;-81
2023/09/13 01:41:44;;;;;;;1.17;1.17;;;19.40;99.90;;;;;;4975874;28;20043;-82
2023/09/13 01:44:10;;;;;;;1.20;1.20;;;19.30;99.90;;;;;;4991532;28;20175;-82
2023/09/13 01:46:41;;;;;;;1.30;1.30;;;19.50;99.90;;;;;;4998599;28;20041;-82
2023/09/13 01:49:09;;;;;;;1.30;1.30;;;19.50;99.90;;;;;;4975864;28;20424;-81
2023/09/13 01:51:35;;;;;;;1.50;1.40;;;19.50;99.90;;;;;;4983982;28;20192;-82
2023/09/13 01:54:01;;;;;;;1.30;1.30;;;19.60;99.90;;;;;;4985047;28;20125;-82
2023/09/13 01:56:27;;;;;;;1.30;1.30;;;19.60;99.90;;;;;;4976696;28;20141;-81
2023/09/13 01:58:53;;;;;;;1.50;1.40;;;19.30;99.90;;;;;;4983182;28;20530;-81
2023/09/13 02:01:19;;;;;;;1.42;1.35;;;19.20;99.90;;;;;;4984794;28;20058;-81
2023/09/13 02:03:45;;;;;;;1.50;1.40;;;19.40;99.90;;;;;;5006573;28;20085;-81
2023/09/13 02:06:12;;;;;;;1.50;1.40;;;19.60;99.90;;;;;;4984267;28;20117;-81
2023/09/13 02:08:38;;;;;;;1.52;1.42;;;19.40;99.90;;;;;;5002450;28;20053;-82
2023/09/13 02:11:06;;;;;;;1.42;1.38;;;19.40;99.90;;;;;;4986824;28;20480;-81
2023/09/13 02:13:35;;;;;;;1.38;1.35;;;18.90;99.90;;;;;;4998619;28;20076;-81
2023/09/13 02:16:01;;;;;;;1.58;1.48;;;19.50;99.90;;;;;;5001701;28;20068;-81
2023/09/13 02:18:27;;;;;;;1.58;1.48;;;19.20;99.90;;;;;;5005987;28;20574;-82
2023/09/13 02:20:52;;;;;;;1.40;1.35;;;18.90;99.90;;;;;;4982796;28;20056;-82
2023/09/13 02:23:19;;;;;;;1.63;1.52;;;19.30;99.90;;;;;;5006340;28;20060;-82
2023/09/13 02:25:45;;;;;;;1.73;1.63;;;18.80;99.90;;;;;;4985217;28;20052;-81
2023/09/13 02:28:12;;;;;;;1.73;1.63;;;19.00;99.90;;;;;;4984454;28;20487;-82
2023/09/13 02:30:39;;;;;;;1.63;1.52;;;19.10;99.90;;;;;;5004900;28;20531;-82
2023/09/13 02:33:06;;;;;;;1.52;1.42;;;19.20;99.90;;;;;;5004544;28;20041;-81
2023/09/13 02:35:32;;;;;;;1.60;1.50;;;19.50;99.90;;;;;;4987238;28;20053;-82
2023/09/13 02:37:58;;;;;;;1.50;1.40;;;19.00;99.90;;;;;;5007667;28;20037;-82
2023/09/13 02:40:24;;;;;;;1.52;1.42;;;19.30;99.90;;;;;;4981925;28;20582;-82
2023/09/13 02:42:50;;;;;;;1.33;1.33;;;19.10;99.90;;;;;;4985568;28;20124;-82
2023/09/13 02:45:16;;;;;;;1.27;1.27;;;18.80;99.90;;;;;;4983181;28;20046;-82
2023/09/13 02:47:42;;;;;;;1.25;1.25;;;19.10;99.90;;;;;;4985843;28;20045;-82
2023/09/13 02:50:08;;;;;;;1.30;1.30;;;18.80;99.90;;;;;;4986719;28;20132;-82
2023/09/13 02:52:34;;;;;;;1.13;1.13;;;19.10;99.90;;;;;;4986453;28;20072;-82
2023/09/13 02:55:06;;;;;;;1.05;1.05;;;19.00;99.90;;;;;;5006275;28;20094;-82
2023/09/13 02:57:32;;;;;;;1.10;1.10;;;19.10;99.90;;;;;;4988806;28;20050;-83
2023/09/13 02:59:58;;;;;;;0.95;0.95;;;19.10;99.90;;;;;;5007343;28;20108;-82
2023/09/13 03:02:24;;;;;;;1.00;1.00;;;18.60;99.90;;;;;;4986674;28;20042;-83
2023/09/13 03:04:51;;;;;;;0.85;0.85;;;19.00;99.90;;;;;;4988199;28;20141;-83
2023/09/13 03:07:17;;;;;;;0.85;0.85;;;18.70;99.90;;;;;;4987112;28;20732;-83
2023/09/13 03:09:44;;;;;;;0.80;0.80;;;18.60;99.90;;;;;;4988371;28;20486;-83
2023/09/13 03:12:10;;;;;;;0.77;0.77;;;18.50;99.90;;;;;;4985794;28;20581;-82
2023/09/13 03:14:36;;;;;;;0.70;0.70;;;18.90;99.90;;;;;;4987652;28;20042;-83
2023/09/13 03:17:02;;;;;;;0.70;0.70;;;18.50;99.90;;;;;;5003985;28;20041;-83
2023/09/13 03:19:29;;;;;;;0.60;0.60;;;18.40;99.90;;;;;;4987275;28;20053;-83
2023/09/13 03:21:55;;;;;;;0.60;0.60;;;18.60;99.90;;;;;;4993531;28;20111;-82
2023/09/13 03:24:20;;;;;;;0.60;0.60;;;18.60;99.90;;;;;;4984321;28;20041;-83
2023/09/13 03:26:47;;;;;;;0.60;0.60;;;18.30;99.90;;;;;;4986851;28;20046;-82
2023/09/13 03:29:12;;;;;;;0.60;0.60;;;18.70;99.90;;;;;;4985609;28;20056;-83
2023/09/13 03:31:38;;;;;;;0.60;0.60;;;18.60;99.90;;;;;;4986312;28;20046;-83
2023/09/13 03:34:04;;;;;;;0.70;0.70;;;18.40;99.90;;;;;;4988806;28;20073;-83
2023/09/13 03:36:29;;;;;;;0.60;0.60;;;18.70;99.90;;;;;;4984756;28;20180;-83
2023/09/13 03:38:55;;;;;;;0.65;0.65;;;18.60;99.90;;;;;;4989938;28;20539;-84
2023/09/13 03:41:22;;;;;;;0.70;0.70;;;18.40;99.90;;;;;;4985035;28;20438;-83
2023/09/13 03:43:49;;;;;;;0.60;0.60;;;18.40;99.90;;;;;;5002326;28;20413;-83
2023/09/13 03:46:15;;;;;;;0.70;0.70;;;18.60;99.90;;;;;;4984760;28;20050;-83
2023/09/13 03:48:40;;;;;;;0.70;0.70;;;18.30;99.90;;;;;;5007383;28;20195;-83
2023/09/13 03:51:07;;;;;;;0.60;0.60;;;18.70;99.90;;;;;;5005489;28;20088;-84
2023/09/13 03:53:33;;;;;;;0.70;0.70;;;18.20;99.90;;;;;;4969553;28;20044;-84
2023/09/13 03:56:00;;;;;;;0.70;0.70;;;18.60;99.90;;;;;;4968208;28;20385;-84
2023/09/13 03:58:26;;;;;;;0.70;0.70;;;18.50;99.90;;;;;;4991972;28;20052;-84
2023/09/13 04:00:53;;;;;;;0.70;0.70;;;18.10;99.90;;;;;;4980661;28;20050;-84
2023/09/13 04:03:19;;;;;;;0.80;0.80;;;18.30;99.90;;;;;;4976530;28;20076;-84
2023/09/13 04:05:45;;;;;;;0.80;0.80;;;18.20;99.90;;;;;;4970140;28;20157;-83
2023/09/13 04:08:11;;;;;;;0.77;0.77;;;18.40;99.90;;;;;;4984966;28;20080;-83
2023/09/13 04:10:37;;;;;;;0.75;0.75;;;18.30;99.90;;;;;;4985781;28;20058;-83
2023/09/13 04:13:03;;;;;;;0.85;0.85;;;18.20;99.90;;;;;;4982401;28;20042;-83
2023/09/13 04:15:29;;;;;;;0.80;0.80;;;18.00;99.90;;;;;;4978361;28;20053;-83
2023/09/13 04:17:55;;;;;;;0.80;0.80;;;18.10;99.90;;;;;;4971037;28;20046;-83
2023/09/13 04:20:22;;;;;;;0.82;0.82;;;18.00;99.90;;;;;;4979533;28;20050;-83
2023/09/13 04:22:48;;;;;;;0.90;0.90;;;17.80;99.90;;;;;;4985143;28;20061;-84
2023/09/13 04:25:16;;;;;;;0.90;0.90;;;18.10;99.90;;;;;;4971313;28;20050;-83
2023/09/13 04:27:46;;;;;;;0.70;0.70;;;18.10;99.90;;;;;;4987637;28;20537;-84
2023/09/13 04:30:13;;;;;;;0.90;0.90;;;18.30;99.90;;;;;;4955435;28;20439;-84
2023/09/13 04:32:39;;;;;;;0.80;0.80;;;18.30;99.90;;;;;;4969458;28;20077;-84
2023/09/13 04:35:05;;;;;;;0.90;0.90;;;17.80;99.90;;;;;;4979522;28;20054;-83
2023/09/13 04:37:31;;;;;;;0.80;0.80;;;17.80;99.90;;;;;;4992194;28;20053;-83
2023/09/13 04:39:57;;;;;;;0.90;0.90;;;18.10;99.90;;;;;;4974406;28;20054;-83
2023/09/13 04:42:23;;;;;;;1.00;1.00;;;17.90;99.90;;;;;;4962226;28;20142;-84
2023/09/13 04:44:49;;;;;;;0.90;0.90;;;17.90;99.90;;;;;;4957619;28;20764;-83
2023/09/13 04:47:15;;;;;;;0.70;0.70;;;17.80;99.90;;;;;;4972391;28;20157;-84
2023/09/13 04:49:40;;;;;;;0.80;0.80;;;18.00;99.90;;;;;;4985230;28;20060;-84
2023/09/13 04:52:09;;;;;;;0.93;0.93;;;18.00;99.90;;;;;;4987298;28;20163;-83
2023/09/13 04:54:36;;;;;;;0.85;0.85;;;17.90;99.90;;;;;;4985835;28;20057;-83
2023/09/13 04:57:05;;;;;;;0.80;0.80;;;17.80;99.90;;;;;;4980505;28;20149;-83
2023/09/13 04:59:43;;;;;;;0.80;0.80;;;17.80;99.90;;;;;;5000028;28;20046;-83
2023/09/13 05:02:12;;;;;;;0.80;0.80;;;17.80;99.90;;;;;;4986876;28;20442;-83
2023/09/13 05:04:42;;;;;;;0.80;0.80;;;18.00;99.90;;;;;;4989870;28;21521;-83
2023/09/13 05:07:08;;;;;;;0.90;0.90;;;18.00;99.90;;;;;;4969680;28;20137;-84
2023/09/13 05:09:36;;;;;;;0.75;0.75;;;17.90;99.90;;;;;;4972880;28;20196;-84
2023/09/13 05:12:01;;;;;;;0.80;0.80;;;17.50;99.90;;;;;;4988416;28;20107;-84
2023/09/13 05:14:27;;;;;;;0.90;0.90;;;17.60;99.90;;;;;;4990149;28;20049;-83
2023/09/13 05:16:53;;;;;;;0.88;0.88;;;17.70;99.90;;;;;;4971462;28;20102;-83
2023/09/13 05:19:19;;;;;;;0.70;0.70;;;17.80;99.90;;;;;;4989985;28;20112;-84
2023/09/13 05:21:45;;;;;;;0.77;0.77;;;17.50;99.90;;;;;;4989654;28;20041;-84
2023/09/13 05:24:10;;;;;;;0.60;0.60;;;18.00;99.90;;;;;;4987454;28;20548;-83
2023/09/13 05:26:36;;;;;;;0.60;0.60;;;17.70;99.90;;;;;;5006548;28;20299;-84
2023/09/13 05:29:02;;;;;;;0.70;0.70;;;17.40;99.90;;;;;;4987503;28;20049;-84
2023/09/13 05:31:28;;;;;;;0.70;0.70;;;17.90;99.90;;;;;;4987941;28;20046;-84
2023/09/13 05:33:54;;;;;;;0.80;0.80;;;17.50;99.90;;;;;;4972253;28;20503;-84
2023/09/13 05:36:20;;;;;;;0.70;0.70;;;17.70;99.90;;;;;;5011357;28;20053;-83
2023/09/13 05:38:46;;;;;;;0.75;0.75;;;17.70;99.90;;;;;;4985780;28;20132;-84
2023/09/13 05:41:12;;;;;;;0.60;0.60;;;17.60;99.90;;;;;;4987550;28;20107;-83
2023/09/13 05:43:47;;;;;;;0.60;0.60;;;17.40;99.90;;;;;;4971675;28;20746;-84
2023/09/13 05:46:12;;;;;;;0.60;0.60;;;17.40;99.90;;;;;;4989228;28;20045;-83
2023/09/13 05:48:38;;;;;;;0.60;0.60;;;18.00;99.90;;;;;;4987975;28;20046;-83
2023/09/13 05:51:04;;;;;;;0.60;0.60;;;17.80;99.90;;;;;;4987431;28;20041;-84
2023/09/13 05:53:30;;;;;;;0.60;0.60;;;17.70;99.90;;;;;;4984899;28;20049;-83
2023/09/13 05:55:56;;;;;;;0.63;0.63;;;17.30;99.90;;;;;;4983937;28;20148;-83
2023/09/13 05:58:23;;;;;;;0.60;0.60;;;17.60;99.90;;;;;;4986840;28;20054;-83
2023/09/13 06:00:50;;;;;;;0.70;0.70;;;17.60;99.90;;;;;;4992647;28;20095;-83
2023/09/13 06:03:17;;;;;;;0.68;0.68;;;17.90;99.90;;;;;;5001087;28;20475;-82
2023/09/13 06:05:43;;;;;;;0.80;0.80;;;17.90;99.90;;;;;;4984437;28;20053;-82
2023/09/13 06:08:09;;;;;;;0.82;0.82;;;17.20;99.90;;;;;;5006087;28;20045;-83
2023/09/13 06:10:35;;;;;;;0.80;0.80;;;17.40;99.90;;;;;;4992637;28;20057;-82
2023/09/13 06:13:00;;;;;;;0.90;0.90;;;17.40;99.90;;;;;;5003304;28;20137;-81
2023/09/13 06:15:26;;;;;;;0.80;0.80;;;17.60;99.90;;;;;;5007580;28;20069;-81
2023/09/13 06:17:53;;;;;;;2.85;0.90;;;17.30;99.90;;;;;;5003246;28;20054;-80
2023/09/13 06:20:19;;;;;;;0.85;0.85;;;17.60;99.90;;;;;;5004886;28;20120;-80
2023/09/13 06:22:45;;;;;;;0.90;0.90;;;17.30;99.90;;;;;;5003306;28;20038;-80
2023/09/13 06:25:10;;;;;;;0.90;0.90;;;17.40;99.90;;;;;;4986776;28;20133;-80
2023/09/13 06:27:36;;;;;;;0.80;0.80;;;17.50;99.90;;;;;;5008019;28;20236;-81
2023/09/13 06:30:02;;;;;;;0.90;0.90;;;16.90;99.90;;;;;;4984218;28;20072;-80
2023/09/13 06:32:28;;;;;;;0.90;0.90;;;17.00;99.90;;;;;;4985112;28;20061;-81
2023/09/13 06:34:58;;;;;;;0.90;0.90;;;16.60;99.90;;;;;;4983550;28;20050;-82
2023/09/13 06:37:25;;;;;;;0.88;0.88;;;16.40;99.90;;;;;;4988801;28;20573;-80
2023/09/13 06:39:54;;;;;;;0.90;0.90;;;16.30;99.90;;;;;;4983963;28;20046;-81
2023/09/13 06:42:20;;;;;;;1.08;1.08;;;15.80;99.90;;;;;;4983240;28;20049;-81
2023/09/13 06:44:46;;;;;;;1.05;1.05;;;15.40;99.90;;;;;;4986372;28;20057;-81
2023/09/13 06:47:11;;;;;;;1.00;1.00;;;15.60;99.90;;;;;;5003699;28;20046;-81
2023/09/13 06:49:37;;;;;;;0.98;0.98;;;15.60;99.90;;;;;;4988359;28;20053;-80
2023/09/13 06:52:03;;;;;;;0.98;0.98;;;15.50;99.90;;;;;;5004469;28;20052;-80
2023/09/13 06:54:28;;;;;;;0.93;0.93;;;15.60;99.90;;;;;;5009423;28;20380;-78
2023/09/13 06:56:54;;;;;;;0.88;0.88;;;15.60;99.90;;;;;;5010335;28;20081;-81
2023/09/13 06:59:20;;;;;;;0.90;0.90;;;15.60;99.90;;;;;;5005348;28;20045;-80
2023/09/13 07:01:46;;;;;;;1.00;1.00;;;15.50;99.90;;;;;;4988364;28;20054;-80
2023/09/13 07:04:13;;;;;;;0.90;0.90;;;15.40;99.90;;;;;;5011716;28;20121;-81
2023/09/13 07:06:39;;;;;;;0.90;0.90;;;15.20;99.90;;;;;;4987427;28;20499;-81
2023/09/13 07:09:05;;;;;;;0.82;0.82;;;15.20;99.90;;;;;;5007376;28;20078;-81
2023/09/13 07:11:31;;;;;;;0.88;0.88;;;15.30;99.90;;;;;;4988741;28;20050;-81
2023/09/13 07:13:59;;;;;;;0.90;0.90;;;15.30;99.90;;;;;;5005003;28;20045;-81
2023/09/13 07:16:25;;;;;;;0.80;0.80;;;15.30;99.90;;;;;;4981497;28;20153;-78
2023/09/13 07:18:51;;;;;;;0.90;0.90;;;15.20;99.90;;;;;;5002723;28;20065;-78
2023/09/13 07:21:17;;;;;;;0.80;0.80;;;15.10;99.90;;;;;;4993070;28;20050;-81
2023/09/13 07:23:44;;;;;;;0.80;0.80;;;15.50;99.90;;;;;;4986251;28;20054;-79
2023/09/13 07:26:10;;;;;;;0.80;0.80;;;15.20;99.90;;;;;;4985487;28;20745;-79
2023/09/13 07:28:36;;;;;;;0.80;0.80;;;15.40;99.90;;;;;;4988363;28;20056;-79
2023/09/13 07:31:08;;;;;;;0.70;0.70;;;15.50;99.90;;;;;;5001916;28;20073;-79
2023/09/13 07:33:34;;;;;;;0.80;0.80;;;15.50;99.90;;;;;;5006567;28;20078;-79
2023/09/13 07:36:03;;;;;;;0.70;0.70;;;15.40;99.90;;;;;;5003803;28;20176;-79
2023/09/13 07:38:28;;;;;;;0.70;0.70;;;15.50;99.90;;;;;;4999367;28;20808;-78
2023/09/13 07:40:54;;;;;;;0.70;0.70;;;15.70;99.90;;;;;;5003604;28;20046;-79
2023/09/13 07:43:20;;;;;;;0.70;0.70;;;15.50;99.90;;;;;;4990918;28;20170;-81
2023/09/13 07:45:46;;;;;;;0.70;0.70;;;15.60;99.90;;;;;;5000754;28;20060;-80
2023/09/13 07:48:12;;;;;;;0.80;0.80;;;15.50;99.90;;;;;;5000391;28;20044;-79
2023/09/13 07:50:40;;;;;;;0.75;0.75;;;15.30;99.90;;;;;;4981923;28;20078;-80
2023/09/13 07:53:10;;;;;;;0.80;0.80;;;15.50;99.90;;;;;;5000698;28;20041;-81
2023/09/13 07:55:37;;;;;;;0.73;0.73;;;15.40;99.90;;;;;;4982086;28;20050;-81
2023/09/13 07:58:03;;;;;;;0.70;0.70;;;15.60;99.90;;;;;;4997912;28;20633;-82
2023/09/13 08:00:29;;;;;;;0.80;0.80;;;15.50;99.90;;;;;;4963466;28;20137;-82
2023/09/13 08:02:55;;;;;;;0.73;0.73;;;15.70;99.90;;;;;;4999204;28;20112;-82
2023/09/13 08:05:21;;;;;;;0.70;0.70;;;15.70;99.90;;;;;;4984819;28;20046;-81
2023/09/13 08:07:47;;;;;;;0.75;0.75;;;15.50;99.90;;;;;;4997094;28;20599;-81
2023/09/13 08:10:13;;;;;;;0.70;0.70;;;15.60;99.90;;;;;;4992749;28;20080;-82
2023/09/13 08:12:39;;;;;;;0.73;0.73;;;15.60;99.90;;;;;;5000446;28;20077;-81
2023/09/13 08:15:05;;;;;;;0.70;0.70;;;15.90;99.90;;;;;;5005562;28;20107;-82
2023/09/13 08:17:33;;;;;;;0.75;0.75;;;15.90;99.90;;;;;;4979752;28;20053;-81
2023/09/13 08:19:59;;;;;;;0.80;0.80;;;15.90;99.90;;;;;;4979075;28;20085;-82
2023/09/13 08:22:25;;;;;;;0.75;0.75;;;15.90;99.90;;;;;;4987847;28;20060;-81
2023/09/13 08:24:50;;;;;;;0.70;0.70;;;15.70;99.90;;;;;;5000387;28;20050;-81
2023/09/13 08:27:16;;;;;;;0.75;0.75;;;15.70;99.90;;;;;;4998648;28;20082;-81
2023/09/13 08:29:42;;;;;;;0.70;0.70;;;15.80;99.90;;;;;;4961588;28;20050;-81
2023/09/13 08:32:07;;;;;;;0.73;0.73;;;16.00;99.90;;;;;;5001043;28;20069;-82
2023/09/13 08:34:33;;;;;;;0.80;0.80;;;15.80;99.90;;;;;;4986391;28;20133;-84
2023/09/13 08:36:59;;;;;;;0.77;0.77;;;16.00;99.90;;;;;;4981033;28;20435;-82
2023/09/13 08:39:25;;;;;;;0.77;0.77;;;15.90;99.90;;;;;;4982627;28;20076;-81
2023/09/13 08:41:55;;;;;;;0.75;0.75;;;15.90;99.90;;;;;;5006448;28;20046;-80
2023/09/13 08:44:22;;;;;;;0.77;0.77;;;15.80;99.90;;;;;;5000176;28;20498;-81
2023/09/13 08:46:55;;;;;;;0.75;0.75;;;16.00;99.90;;;;;;4980366;28;20058;-81
2023/09/13 08:49:22;;;;;;;0.73;0.73;;;16.00;99.90;;;;;;4982851;28;20389;-81
2023/09/13 08:51:48;;;;;;;0.75;0.75;;;15.90;99.90;;;;;;4999096;28;20132;-81
2023/09/13 08:54:15;;;;;;;0.77;0.77;;;16.20;99.90;;;;;;5009445;28;20515;-81
2023/09/13 08:56:45;;;;;;;0.70;0.70;;;16.40;99.90;;;;;;5000507;28;20038;-81
2023/09/13 08:59:15;;;;;;;0.73;0.73;;;16.30;99.90;;;;;;4984550;28;20686;-80
2023/09/13 09:01:48;;;;;;;0.75;0.75;;;16.40;99.90;;;;;;4985526;28;20097;-83
2023/09/13 09:04:16;;;;;;;0.82;0.82;;;16.50;99.90;;;;;;4983993;28;20050;-82
2023/09/13 09:06:42;;;;;;;0.73;0.73;;;15.90;99.90;;;;;;5002354;28;20590;-81
2023/09/13 09:09:08;;;;;;;0.80;0.80;;;16.20;99.90;;;;;;5004849;28;20053;-82
2023/09/13 09:11:38;;;;;;;0.77;0.77;;;16.00;99.90;;;;;;4986371;28;20515;-83
2023/09/13 09:14:04;;;;;;;0.80;0.80;;;16.00;99.90;;;;;;4968322;28;20069;-84
2023/09/13 09:16:35;;;;;;;0.80;0.80;;;15.80;99.90;;;;;;5000100;28;20129;-83
2023/09/13 09:19:01;;;;;;;0.75;0.75;;;15.80;99.90;;;;;;5002261;28;20778;-83
2023/09/13 09:21:29;;;;;;;0.80;0.80;;;15.80;99.90;;;;;;4984606;28;20697;-84
2023/09/13 09:23:56;;;;;;;0.75;0.75;;;15.90;99.90;;;;;;4969110;28;20048;-82
2023/09/13 09:26:22;;;;;;;0.70;0.70;;;16.10;99.90;;;;;;4977989;28;20047;-82
2023/09/13 09:28:48;;;;;;;0.60;0.60;;;16.00;99.90;;;;;;4983796;28;20073;-81
2023/09/13 09:31:16;;;;;;;0.65;0.65;;;16.40;99.90;;;;;;4980193;28;20045;-83
2023/09/13 09:33:42;;;;;;;0.70;0.70;;;16.70;99.90;;;;;;5001542;28;20053;-84
2023/09/13 09:36:10;;;;;;;0.60;0.60;;;16.80;99.90;;;;;;4988731;28;20619;-85
2023/09/13 09:38:36;;;;;;;0.60;0.60;;;17.00;99.90;;;;;;4989059;28;20053;-82
2023/09/13 09:41:03;;;;;;;0.50;0.50;;;17.10;99.90;;;;;;4988517;28;20050;-83
2023/09/13 09:43:30;;;;;;;0.50;0.50;;;18.00;99.90;;;;;;4949689;28;1160365;-83
2023/09/13 09:45:56;;;;;;;0.50;0.50;;;18.30;99.90;;;;;;4989177;28;20068;-84
2023/09/13 09:48:22;;;;;;;0.50;0.50;;;18.60;99.90;;;;;;4990357;28;20050;-84
2023/09/13 09:50:52;;;;;;;0.57;0.57;;;18.20;99.90;;;;;;4990348;28;20056;-84
2023/09/13 09:53:20;;;;;;;0.52;0.52;;;18.30;99.90;;;;;;4989004;28;20057;-82
2023/09/13 09:55:46;;;;;;;0.57;0.57;;;18.40;99.90;;;;;;5006049;28;20080;-84
2023/09/13 09:58:12;;;;;;;0.82;0.82;;;18.50;99.90;;;;;;4989503;28;20042;-85
2023/09/13 10:00:53;;;;;;;0.85;0.85;;;18.40;99.90;;;;;;4990093;28;20093;-83
2023/09/13 10:03:24;;;;;;;0.93;0.93;;;18.10;99.90;;;;;;4991982;28;20070;-85
2023/09/13 10:05:50;;;;;;;0.90;0.90;;;18.30;99.90;;;;;;4989520;28;20057;-86
2023/09/13 10:08:16;;;;;;;1.00;1.00;;;18.40;99.90;;;;;;4989642;28;20065;-87
2023/09/13 10:10:45;;;;;;;0.90;0.90;;;18.20;99.90;;;;;;4971607;28;20049;-84
2023/09/13 10:13:17;;;;;;;0.95;0.95;;;18.20;99.90;;;;;;4989975;28;20033;-85
2023/09/13 10:15:43;;;;;;;0.90;0.90;;;18.40;99.90;;;;;;4988068;28;20485;-83
2023/09/13 10:18:12;;;;;;;0.98;0.98;;;18.30;99.90;;;;;;4992158;28;20046;-84
2023/09/13 10:20:39;;;;;;;1.65;1.55;;;18.30;99.90;;;;;;4991497;28;20058;-86
2023/09/13 10:23:11;;;;;;;1.10;1.10;;;18.00;99.90;;;;;;4995916;28;20050;-85
2023/09/13 10:25:44;;;;;;;1.00;1.00;;;17.90;99.90;;;;;;4988930;28;20045;-85
2023/09/13 10:28:15;;;;;;;1.02;1.02;;;17.80;99.90;;;;;;4992219;28;20053;-87
2023/09/13 10:30:49;;;;;;;1.00;1.00;;;18.00;99.90;;;;;;4990621;28;20076;-86
2023/09/13 10:33:15;;;;;;;;;;;18.10;99.90;;;;;;4971955;28;20049;-84
2023/09/13 10:35:48;;;;;;;1.00;1.00;;;18.20;99.90;;;;;;4989558;28;20386;-85
2023/09/13 10:38:40;;;;;;;0.90;0.90;;;18.30;99.90;;;;;;4989180;28;20045;-86
2023/09/13 10:41:09;;;;;;;0.88;0.88;;;18.60;99.90;;;;;;4982342;28;20057;-85
2023/09/13 10:43:37;;;;;;;0.98;0.98;;;19.40;99.90;;;;;;4984856;28;20209;-87
2023/09/13 10:46:03;;;;;;;0.80;0.80;;;19.70;99.90;;;;;;4964673;28;20046;-86
2023/09/13 10:48:35;;;;;;;0.80;0.80;;;19.40;99.90;;;;;;4965998;28;20042;-85
2023/09/13 10:51:01;;;;;;;0.80;0.80;;;19.10;99.90;;;;;;4982507;28;20065;-86
2023/09/13 10:53:38;;;;;;;0.80;0.80;;;19.00;99.90;;;;;;4993691;28;20049;-86
2023/09/13 10:56:12;;;;;;;0.80;0.80;;;18.90;99.90;;;;;;4965599;28;20462;-86
2023/09/13 10:58:44;;;;;;;0.82;0.80;;;19.00;99.90;;;;;;4978654;28;20397;-86
2023/09/13 11:01:17;;;;;;;0.70;0.70;;;19.40;99.90;;;;;;4973090;28;20054;-86
2023/09/13 11:03:42;;;;;;;0.70;0.70;;;19.30;99.90;;;;;;4968866;28;20119;-85
2023/09/13 11:06:36;;;;;;;0.68;0.68;;;19.30;99.90;;;;;;4989879;28;20539;-96
2023/09/13 11:09:13;;;;;;;0.63;0.63;;;19.50;99.90;;;;;;4981616;28;20069;-87
2023/09/13 11:11:44;;;;;;;0.70;0.70;;;19.20;99.90;;;;;;4989162;28;20042;-88
2023/09/13 11:14:30;;;;;;;0.70;0.70;;;19.00;99.90;;;;;;4983077;28;20415;-86
2023/09/13 11:17:02;;;;;;;0.65;0.65;;;19.00;99.90;;;;;;4988028;28;20041;-85
2023/09/13 11:19:28;;;;;;;0.65;0.65;;;18.80;99.90;;;;;;5003188;28;20105;-83
2023/09/13 11:22:06;;;;;;;0.70;0.70;;;18.50;99.90;;;;;;5006453;28;20053;-86
2023/09/13 11:24:49;;;;;;;0.80;0.80;;;18.40;99.90;;;;;;4987557;28;20046;-86
2023/09/13 11:27:16;;;;;;;0.70;0.70;;;18.00;99.90;;;;;;4970092;28;20046;-88
2023/09/13 11:29:52;;;;;;;0.80;0.80;;;17.90;99.90;;;;;;4973924;28;20068;-84
2023/09/13 11:32:20;;;;;;;0.90;0.90;;;17.90;99.90;;;;;;4972044;28;20050;-84
2023/09/13 11:34:54;;;;;;;1.00;1.00;;;17.80;99.90;;;;;;4984987;28;20057;-86
2023/09/13 11:37:22;;;;;;;1.08;1.08;;;17.50;99.90;;;;;;4985195;28;20057;-85
2023/09/13 11:39:55;;;;;;;1.20;1.20;;;17.50;99.90;;;;;;4989729;28;20144;-85
2023/09/13 11:42:30;;;;;;;1.15;1.15;;;17.70;99.90;;;;;;4986083;28;20053;-86
2023/09/13 11:45:08;;;;;;;1.10;1.10;;;17.60;99.90;;;;;;4976351;28;20078;-86
2023/09/13 11:47:40;;;;;;;1.00;1.00;;;17.50;99.90;;;;;;4973413;28;20054;-87
2023/09/13 11:50:09;;;;;;;1.00;1.00;;;17.60;99.90;;;;;;4969240;28;20073;-87
2023/09/13 11:53:24;;;;;;;0.88;0.88;;;17.80;99.90;;;;;;4972493;28;20054;-87
2023/09/13 11:56:02;;;;;;;0.93;0.93;;;17.90;99.90;;;;;;4984016;28;20056;-88
2023/09/13 11:58:41;;;;;;;0.80;0.80;;;18.20;99.90;;;;;;4992527;28;20057;-91
2023/09/13 12:01:07;;;;;;;0.88;0.88;;;18.20;99.90;;;;;;4974682;28;20500;-86
2023/09/13 12:03:36;;;;;;;0.88;0.88;;;18.40;99.90;;;;;;4973318;28;20092;-87
2023/09/13 12:06:12;;;;;;;0.88;0.88;;;18.40;99.90;;;;;;4986336;28;20111;-88
2023/09/13 12:08:37;;;;;;;0.85;0.85;;;18.70;99.90;;;;;;4974367;28;20153;-90
2023/09/13 12:11:16;;;;;;;0.85;0.85;;;18.50;99.90;;;;;;4974643;28;20128;-87
2023/09/13 12:13:55;;;;;;;0.88;0.88;;;18.70;99.90;;;;;;4970984;28;20037;-89
2023/09/13 12:16:35;;;;;;;0.80;0.80;;;18.90;99.90;;;;;;4973020;28;20096;-89
2023/09/13 12:19:01;;;;;;;0.80;0.80;;;19.00;99.90;;;;;;4967634;28;20033;-89
2023/09/13 12:21:27;;;;;;;0.77;0.77;;;19.10;99.90;;;;;;4968965;28;20444;-89
2023/09/13 12:23:52;;;;;;;0.70;0.70;;;19.40;99.90;;;;;;4978070;28;20050;-91
2023/09/13 12:26:23;;;;;;;0.70;0.70;;;19.60;99.90;;;;;;4982996;28;20100;-87
2023/09/13 12:28:53;;;;;;;0.60;0.60;;;19.50;99.90;;;;;;4992591;28;20458;-88
2023/09/13 12:31:20;;;;;;;0.70;0.70;;;19.60;99.90;;;;;;4976654;28;20042;-86
2023/09/13 12:33:53;;;;;;;0.60;0.60;;;19.70;99.90;;;;;;4988807;28;20128;-92
2023/09/13 12:36:24;;;;;;;0.60;0.60;;;19.70;99.90;;;;;;4987731;28;20064;-85
2023/09/13 12:38:58;;;;;;;0.50;0.50;;;19.90;99.90;;;;;;4992193;28;20050;-88
2023/09/13 12:41:37;;;;;;;0.55;0.55;;;20.00;99.90;;;;;;4987890;28;20061;-86
2023/09/13 12:44:11;;;;;;;0.50;0.50;;;20.10;99.90;;;;;;4989585;28;20042;-87
2023/09/13 12:46:37;;;;;;;0.50;0.50;;;20.20;99.90;;;;;;4968685;28;20045;-87
2023/09/13 12:49:03;;;;;;;0.50;0.50;;;20.40;99.90;;;;;;4981707;28;20382;-88
2023/09/13 12:51:33;;;;;;;0.50;0.50;;;20.40;99.90;;;;;;4971737;28;20099;-89
2023/09/13 12:54:12;;;;;;;0.57;0.57;;;20.40;99.90;;;;;;4982858;28;20050;-89